Time;durP1;ratioP1;P1;durP2;ratioP2;P2;SDS_P1;SDS_P2;PMS_P1;PMS_P2;Temp;Humidity;BMP_temperature;BMP_pressure;BME280_temperature;BME280_humidity;BME280_pressure;Samples;Min_cycle;Max_cycle;Signal;HPM_P1;HPM_P2
2022/12/10 00:00:24;;;;;;;43.37;19.40;;;;;;;9.53;62.91;100529.44;5033022;28;20405;-77
2022/12/10 00:02:49;;;;;;;41.93;18.37;;;;;;;9.54;63.04;100517.88;5029047;28;20386;-78
2022/12/10 00:05:15;;;;;;;39.47;18.80;;;;;;;9.54;62.97;100523.16;5033879;28;20397;-77
2022/12/10 00:07:40;;;;;;;41.17;17.60;;;;;;;9.49;63.11;100525.47;5030902;28;20730;-78
2022/12/10 00:10:06;;;;;;;45.83;20.33;;;;;;;9.58;62.77;100521.00;5013722;28;20392;-77
2022/12/10 00:12:32;;;;;;;41.90;18.20;;;;;;;9.62;62.48;100513.56;5010197;28;20394;-78
2022/12/10 00:14:57;;;;;;;40.40;18.53;;;;;;;9.63;62.51;100515.19;5025223;28;20915;-78
2022/12/10 00:17:23;;;;;;;39.13;17.88;;;;;;;9.58;62.91;100515.72;5022412;28;20387;-76
2022/12/10 00:19:48;;;;;;;43.13;18.50;;;;;;;9.47;63.26;100508.09;5012275;28;20802;-77
2022/12/10 00:22:13;;;;;;;42.33;18.63;;;;;;;9.58;62.90;100513.06;5022213;28;20747;-78
2022/12/10 00:24:39;;;;;;;43.28;18.77;;;;;;;9.62;62.49;100526.78;5016744;28;20395;-77
2022/12/10 00:27:04;;;;;;;51.83;21.37;;;;;;;9.50;62.69;100532.41;5012411;28;20415;-77
2022/12/10 00:29:30;;;;;;;49.55;21.90;;;;;;;9.54;62.98;100523.16;5014318;28;20438;-78
2022/12/10 00:31:55;;;;;;;43.53;20.30;;;;;;;9.62;62.42;100532.09;5013862;28;20379;-76
2022/12/10 00:34:21;;;;;;;47.00;20.83;;;;;;;9.63;62.43;100523.94;5013751;28;20411;-75
2022/12/10 00:36:48;;;;;;;43.47;19.13;;;;;;;9.59;62.40;100512.06;5030947;28;20382;-77
2022/12/10 00:39:20;;;;;;;42.53;19.40;;;;;;;9.60;63.15;100507.59;5030918;28;20470;-77
2022/12/10 00:41:46;;;;;;;39.15;18.67;;;;;;;9.59;62.77;100511.25;5011696;28;20403;-77
2022/12/10 00:44:12;;;;;;;42.63;18.35;;;;;;;9.56;62.54;100507.94;5011039;28;20737;-77
2022/12/10 00:46:38;;;;;;;37.90;17.70;;;;;;;9.57;62.71;100508.75;5012253;28;20426;-77
2022/12/10 00:49:04;;;;;;;38.30;16.55;;;;;;;9.64;62.62;100507.09;5020864;28;20383;-77
2022/12/10 00:51:29;;;;;;;39.15;16.33;;;;;;;9.67;62.50;100511.22;5016737;28;20390;-77
2022/12/10 00:53:58;;;;;;;36.13;16.27;;;;;;;9.56;62.48;100502.66;5012142;28;20412;-77
2022/12/10 00:56:32;;;;;;;34.88;15.82;;;;;;;9.61;62.27;100498.66;5012990;28;21249;-77
2022/12/10 00:58:58;;;;;;;33.53;15.02;;;;;;;9.63;62.62;100494.03;5000293;28;20423;-77
2022/12/10 01:01:33;;;;;;;35.57;15.13;;;;;;;9.62;62.44;100489.75;5013818;28;20399;-77
2022/12/10 01:04:04;;;;;;;34.70;15.35;;;;;;;9.55;62.94;100489.59;5028066;28;20388;-77
2022/12/10 01:06:36;;;;;;;34.47;14.70;;;;;;;9.61;62.44;100486.25;5026629;28;20394;-78
2022/12/10 01:09:04;;;;;;;28.85;14.30;;;;;;;9.58;62.67;100491.91;5014207;28;20489;-78
2022/12/10 01:11:33;;;;;;;35.05;15.55;;;;;;;9.33;63.28;100499.88;5013704;28;20834;-78
2022/12/10 01:13:58;;;;;;;37.33;14.82;;;;;;;9.40;63.45;100491.25;5016718;28;20383;-77
2022/12/10 01:16:25;;;;;;;39.85;14.25;;;;;;;9.45;63.02;100495.03;5022182;28;20788;-77
2022/12/10 01:18:55;;;;;;;37.03;14.75;;;;;;;9.29;63.30;100508.28;5014333;28;20379;-77
2022/12/10 01:21:21;;;;;;;32.13;14.27;;;;;;;9.30;63.33;100518.72;5032720;28;20926;-77
2022/12/10 01:23:48;;;;;;;35.30;14.00;;;;;;;9.02;63.71;100510.31;5031039;28;20387;-77
2022/12/10 01:26:17;;;;;;;42.30;15.05;;;;;;;8.91;64.25;100495.59;5012162;28;20388;-77
2022/12/10 01:28:43;;;;;;;42.40;15.03;;;;;;;8.95;64.30;100498.72;5025364;28;20502;-77
2022/12/10 01:31:16;;;;;;;38.45;15.57;;;;;;;9.09;64.19;100492.78;5030179;28;20386;-77
2022/12/10 01:33:41;;;;;;;44.23;14.53;;;;;;;8.93;64.01;100472.47;5020711;28;20410;-77
2022/12/10 01:36:16;;;;;;;46.67;17.27;;;;;;;8.86;64.18;100476.75;5010954;28;20388;-77
2022/12/10 01:38:41;;;;;;;49.97;16.27;;;;;;;9.00;64.38;100475.25;5022258;28;20382;-77
2022/12/10 01:41:12;;;;;;;35.45;15.68;;;;;;;9.20;64.19;100475.75;5030625;28;20403;-77
2022/12/10 01:43:55;;;;;;;38.40;15.70;;;;;;;9.34;63.24;100472.41;5031918;28;20421;-77
2022/12/10 01:46:23;;;;;;;31.70;14.98;;;;;;;9.41;63.16;100475.22;5028108;28;20907;-76
2022/12/10 01:48:49;;;;;;;34.22;14.77;;;;;;;9.44;63.12;100474.06;5012068;28;20973;-77
2022/12/10 01:51:16;;;;;;;35.92;14.85;;;;;;;9.42;63.25;100476.03;5014347;28;20480;-77
2022/12/10 01:53:43;;;;;;;34.63;14.45;;;;;;;9.41;63.63;100474.41;5013639;28;20384;-77
2022/12/10 01:56:12;;;;;;;40.17;15.75;;;;;;;9.30;62.97;100473.75;5027031;28;20383;-77
2022/12/10 01:58:38;;;;;;;41.13;16.08;;;;;;;9.25;63.35;100467.31;5000527;28;20380;-77
2022/12/10 02:01:14;;;;;;;38.60;15.88;;;;;;;9.32;63.65;100476.22;5024891;28;20398;-77
2022/12/10 02:03:58;;;;;;;40.33;15.45;;;;;;;9.24;63.12;100481.50;5033945;28;20823;-77
2022/12/10 02:06:42;;;;;;;73.28;38.10;;;;;;;9.31;63.51;100469.28;5018972;28;20411;-77
2022/12/10 02:09:10;;;;;;;57.17;25.20;;;;;;;9.23;63.63;100469.31;5023191;28;20727;-77
2022/12/10 02:11:55;;;;;;;43.27;16.70;;;;;;;9.21;64.07;100469.47;5034512;28;20448;-76
2022/12/10 02:14:45;;;;;;;37.53;14.85;;;;;;;9.20;63.43;100470.47;5024797;28;20376;-77
2022/12/10 02:17:25;;;;;;;44.72;14.75;;;;;;;9.11;63.62;100472.28;5013901;28;20414;-77
2022/12/10 02:19:57;;;;;;;44.60;15.47;;;;;;;9.03;64.04;100459.06;5027249;28;20429;-77
2022/12/10 02:22:26;;;;;;;36.47;17.73;;;;;;;9.21;64.08;100452.78;5013904;28;20384;-77
2022/12/10 02:24:53;;;;;;;37.10;16.02;;;;;;;9.38;63.27;100452.59;5024652;28;20390;-77
2022/12/10 02:27:42;;;;;;;34.20;15.20;;;;;;;9.43;62.94;100448.59;5033707;28;20473;-78
2022/12/10 02:30:08;;;;;;;37.33;15.70;;;;;;;9.52;63.13;100442.28;5020263;28;20482;-78
2022/12/10 02:32:38;;;;;;;39.03;16.30;;;;;;;9.45;62.98;100430.72;5030376;28;20451;-77
2022/12/10 02:35:09;;;;;;;37.95;16.00;;;;;;;9.48;63.24;100420.63;5013923;28;20383;-77
2022/12/10 02:37:39;;;;;;;38.33;16.73;;;;;;;9.53;63.07;100428.06;5012254;28;20463;-76
2022/12/10 02:40:11;;;;;;;42.05;17.10;;;;;;;9.42;63.06;100415.19;5031643;28;20402;-77
2022/12/10 02:42:39;;;;;;;43.88;16.60;;;;;;;9.36;63.03;100412.25;5016139;28;20445;-77
2022/12/10 02:45:06;;;;;;;43.10;16.67;;;;;;;9.44;63.14;100408.75;5009816;28;20402;-77
2022/12/10 02:47:32;;;;;;;39.13;17.02;;;;;;;9.53;63.00;100401.59;5011016;28;20487;-77
2022/12/10 02:49:59;;;;;;;40.47;17.10;;;;;;;9.50;62.68;100408.06;5010987;28;20561;-77
2022/12/10 02:52:25;;;;;;;43.53;18.17;;;;;;;9.52;62.91;100410.53;5011165;28;20395;-76
2022/12/10 02:54:51;;;;;;;48.40;20.17;;;;;;;9.26;63.33;100419.53;5014893;28;20379;-77
2022/12/10 02:57:52;;;;;;;42.80;19.80;;;;;;;9.31;63.61;100416.38;5030953;28;20393;-77
2022/12/10 03:00:20;;;;;;;47.97;20.42;;;;;;;9.20;63.49;100433.44;5024503;28;20465;-77
2022/12/10 03:03:25;;;;;;;42.50;19.27;;;;;;;9.14;64.06;100432.28;5011090;28;20376;-77
2022/12/10 03:06:19;;;;;;;44.58;20.20;;;;;;;9.31;63.78;100438.38;5015628;28;20380;-77
2022/12/10 03:09:01;;;;;;;43.58;18.58;;;;;;;9.25;63.44;100423.16;5016312;28;20827;-77
2022/12/10 03:11:27;;;;;;;44.38;20.17;;;;;;;9.21;63.68;100429.78;5016804;28;20419;-77
2022/12/10 03:14:03;;;;;;;38.90;16.93;;;;;;;9.18;64.00;100412.44;5002552;28;20387;-76
2022/12/10 03:16:34;;;;;;;44.65;17.80;;;;;;;9.22;63.54;100415.59;5030378;28;20378;-77
2022/12/10 03:19:12;;;;;;;42.40;19.85;;;;;;;9.30;63.68;100404.16;5030423;28;20402;-76
2022/12/10 03:21:40;;;;;;;38.67;17.48;;;;;;;9.34;63.16;100400.97;5016788;28;20411;-76
2022/12/10 03:24:10;;;;;;;44.38;17.70;;;;;;;9.27;63.23;100421.16;5002896;28;20711;-76
2022/12/10 03:26:37;;;;;;;40.90;18.08;;;;;;;9.19;63.36;100411.44;5030243;28;20821;-76
2022/12/10 03:29:07;;;;;;;43.13;19.40;;;;;;;9.04;64.16;100425.50;5016043;28;20382;-77
2022/12/10 03:31:34;;;;;;;50.05;21.55;;;;;;;8.87;64.16;100419.41;5018870;28;20407;-77
2022/12/10 03:34:02;;;;;;;48.92;15.93;;;;;;;8.68;65.04;100412.63;5009509;28;20398;-77
2022/12/10 03:36:29;;;;;;;37.83;16.17;;;;;;;8.94;64.78;100396.63;5010378;28;20384;-76
2022/12/10 03:38:56;;;;;;;57.10;36.27;;;;;;;9.17;64.33;100400.22;5022351;28;20801;-77
2022/12/10 03:41:22;;;;;;;44.63;17.43;;;;;;;9.15;63.80;100406.66;5016019;28;20497;-77
2022/12/10 03:43:56;;;;;;;43.03;16.90;;;;;;;9.01;64.74;100383.56;5019684;28;20424;-77
2022/12/10 03:46:26;;;;;;;40.90;17.63;;;;;;;9.14;64.22;100400.53;5010037;28;20511;-77
2022/12/10 03:48:52;;;;;;;47.40;18.48;;;;;;;9.23;63.47;100403.19;5010879;28;20486;-77
2022/12/10 03:51:18;;;;;;;45.70;17.15;;;;;;;9.21;64.17;100399.88;5010000;28;20376;-76
2022/12/10 03:53:43;;;;;;;43.03;17.23;;;;;;;9.31;63.34;100388.13;5009480;28;21171;-77
2022/12/10 03:56:09;;;;;;;55.95;38.65;;;;;;;9.37;63.34;100403.31;5010476;28;20388;-77
2022/12/10 03:58:35;;;;;;;41.53;16.75;;;;;;;9.26;63.15;100408.97;5004611;28;20376;-77
2022/12/10 04:01:02;;;;;;;45.22;26.13;;;;;;;9.29;63.98;100407.78;5010101;28;20529;-77
2022/12/10 04:03:46;;;;;;;42.60;19.77;;;;;;;9.30;63.90;100409.44;5019218;28;20388;-77
2022/12/10 04:06:16;;;;;;;47.20;25.00;;;;;;;9.33;63.24;100398.53;5010508;28;20377;-77
2022/12/10 04:08:41;;;;;;;39.33;17.90;;;;;;;9.38;63.63;100414.69;5019027;28;20387;-77
2022/12/10 04:11:10;;;;;;;86.97;67.90;;;;;;;9.40;63.48;100391.56;5010389;28;20381;-77
2022/12/10 04:16:27;;;;;;;45.40;20.42;;;;;;;9.30;63.24;100420.84;5010764;28;20462;-77
2022/12/10 04:19:05;;;;;;;51.67;27.73;;;;;;;9.35;63.49;100407.94;5012507;28;20381;-77
2022/12/10 04:27:16;;;;;;;46.50;19.27;;;;;;;9.47;63.04;100397.84;5014535;28;20395;-77
2022/12/10 04:29:41;;;;;;;46.47;19.17;;;;;;;9.31;63.62;100390.75;5023276;28;20398;-77
2022/12/10 04:32:07;;;;;;;47.90;19.47;;;;;;;9.21;63.38;100400.69;5013905;28;20384;-77
2022/12/10 04:34:33;;;;;;;48.00;20.77;;;;;;;9.14;63.96;100407.66;5026665;28;20741;-77
2022/12/10 04:36:59;;;;;;;46.93;21.60;;;;;;;9.28;64.02;100406.97;5013045;28;20383;-77
2022/12/10 04:39:24;;;;;;;50.70;24.52;;;;;;;9.37;63.18;100398.00;5029861;28;20436;-77
2022/12/10 04:41:50;;;;;;;42.97;19.67;;;;;;;9.43;63.39;100401.78;5025379;28;20396;-77
2022/12/10 04:44:16;;;;;;;44.58;18.13;;;;;;;9.45;63.25;100404.28;5014120;28;20400;-77
2022/12/10 04:46:42;;;;;;;41.67;19.27;;;;;;;9.38;62.83;100388.25;5014491;28;20412;-77
2022/12/10 04:49:08;;;;;;;40.93;19.67;;;;;;;9.39;63.24;100389.91;5007280;28;20944;-77
2022/12/10 04:51:34;;;;;;;47.40;29.88;;;;;;;9.43;63.24;100377.16;5006087;28;20393;-78
2022/12/10 04:53:59;;;;;;;267.30;241.90;;;;;;;9.50;62.98;100391.34;4996773;28;20401;-77
2022/12/10 04:56:25;;;;;;;51.20;33.03;;;;;;;9.57;62.77;100401.09;5001869;28;20397;-77
2022/12/10 04:58:51;;;;;;;46.17;27.17;;;;;;;9.55;62.57;100386.38;5007488;28;20397;-77
2022/12/10 05:01:18;;;;;;;36.83;17.83;;;;;;;9.62;62.71;100416.47;5008987;28;20408;-77
2022/12/10 05:03:44;;;;;;;34.93;16.93;;;;;;;9.54;62.64;100416.47;5002998;28;20587;-77
2022/12/10 05:06:12;;;;;;;41.57;20.73;;;;;;;9.43;62.99;100412.38;5000248;28;20501;-77
2022/12/10 05:08:39;;;;;;;40.70;18.05;;;;;;;9.37;63.06;100411.22;5007303;28;20745;-77
2022/12/10 05:11:09;;;;;;;41.55;18.83;;;;;;;9.48;62.92;100394.16;5005783;28;20484;-77
2022/12/10 05:13:34;;;;;;;44.67;22.65;;;;;;;9.62;62.49;100383.88;5010735;28;20403;-77
2022/12/10 05:16:05;;;;;;;40.33;18.87;;;;;;;9.66;62.08;100382.53;4999831;28;20394;-77
2022/12/10 05:18:30;;;;;;;47.90;22.13;;;;;;;9.44;62.35;100397.34;4996799;28;20401;-77
2022/12/10 05:20:59;;;;;;;38.42;17.60;;;;;;;9.20;63.36;100396.41;5008341;28;20417;-77
2022/12/10 05:23:28;;;;;;;39.40;18.90;;;;;;;9.23;63.93;100396.06;5008677;28;20397;-77
2022/12/10 05:26:03;;;;;;;43.60;21.08;;;;;;;9.43;63.74;100390.38;5008313;28;20409;-78
2022/12/10 05:28:31;;;;;;;41.03;20.17;;;;;;;9.53;63.00;100388.38;5009497;28;20396;-77
2022/12/10 05:30:58;;;;;;;40.90;18.73;;;;;;;9.51;62.86;100395.66;5000286;28;20395;-78
2022/12/10 05:33:24;;;;;;;39.70;19.17;;;;;;;9.45;62.99;100391.84;5002317;28;20385;-77
2022/12/10 05:36:00;;;;;;;44.25;20.52;;;;;;;9.44;63.29;100394.69;5006449;28;20388;-77
2022/12/10 05:38:27;;;;;;;49.10;25.55;;;;;;;9.43;63.06;100388.56;5015691;28;20394;-78
2022/12/10 05:40:53;;;;;;;45.78;23.38;;;;;;;9.59;62.80;100389.50;5008589;28;20411;-77
2022/12/10 05:43:19;;;;;;;66.27;33.60;;;;;;;9.62;62.36;100383.88;5012285;28;20392;-78
2022/12/10 05:45:45;;;;;;;130.43;50.67;;;;;;;9.59;63.02;100376.28;5001018;28;20492;-76
2022/12/10 05:48:13;;;;;;;71.55;31.63;;;;;;;9.43;63.20;100383.28;5010871;28;20410;-77
2022/12/10 05:50:39;;;;;;;41.15;19.27;;;;;;;9.44;63.06;100395.53;5015858;28;20379;-78
2022/12/10 05:53:05;;;;;;;44.22;21.20;;;;;;;9.42;62.80;100394.03;5006915;28;20764;-77
2022/12/10 05:55:32;;;;;;;59.20;25.13;;;;;;;9.41;62.83;100385.25;5003235;28;20862;-78
2022/12/10 05:57:58;;;;;;;50.28;22.45;;;;;;;9.45;63.22;100383.09;5007862;28;20388;-77
2022/12/10 06:00:24;;;;;;;44.97;20.70;;;;;;;9.49;62.88;100379.13;5007748;28;20502;-77
2022/12/10 06:02:50;;;;;;;45.60;21.40;;;;;;;9.48;63.01;100375.66;5005353;28;20445;-77
2022/12/10 06:05:16;;;;;;;44.90;20.97;;;;;;;9.45;62.88;100368.03;5028205;28;20553;-76
2022/12/10 06:07:41;;;;;;;45.80;22.17;;;;;;;9.48;62.73;100378.28;5015479;28;20978;-76
2022/12/10 06:10:07;;;;;;;56.40;26.10;;;;;;;9.44;63.29;100377.00;4996444;28;20387;-76
2022/12/10 06:12:33;;;;;;;47.47;22.73;;;;;;;9.44;62.91;100386.75;5008483;28;20395;-77
2022/12/10 06:14:58;;;;;;;48.00;23.80;;;;;;;9.51;63.15;100385.91;5006612;28;20870;-76
2022/12/10 06:17:24;;;;;;;55.53;30.50;;;;;;;9.46;62.96;100376.84;5017188;28;20384;-77
2022/12/10 06:19:49;;;;;;;47.20;23.50;;;;;;;9.43;62.44;100385.09;5002976;28;20405;-78
2022/12/10 06:22:15;;;;;;;48.47;23.35;;;;;;;9.40;63.25;100377.50;5002513;28;20771;-76
2022/12/10 06:24:40;;;;;;;59.93;27.30;;;;;;;9.35;62.98;100384.13;5015115;28;20387;-76
2022/12/10 06:27:06;;;;;;;50.37;24.40;;;;;;;9.33;63.49;100390.59;5007442;28;20386;-76
2022/12/10 06:29:31;;;;;;;50.47;24.77;;;;;;;9.23;63.74;100384.66;5007646;28;20388;-76
2022/12/10 06:31:56;;;;;;;42.67;20.10;;;;;;;9.12;63.24;100399.06;5015285;28;20471;-78
2022/12/10 06:34:22;;;;;;;41.40;20.33;;;;;;;9.01;64.22;100389.66;5016624;28;20446;-78
2022/12/10 06:36:47;;;;;;;41.22;18.88;;;;;;;9.08;64.17;100395.13;5026452;28;20390;-78
2022/12/10 06:39:13;;;;;;;41.17;18.87;;;;;;;9.10;64.01;100396.59;5035311;28;20374;-79
2022/12/10 06:41:38;;;;;;;44.17;20.10;;;;;;;9.17;63.78;100400.22;5014706;28;20404;-77
2022/12/10 06:44:07;;;;;;;41.38;20.05;;;;;;;9.12;63.56;100397.25;5014189;28;20376;-79
2022/12/10 06:46:33;;;;;;;42.63;19.92;;;;;;;9.01;63.85;100396.78;5015240;28;20411;-78
2022/12/10 06:48:58;;;;;;;39.53;19.23;;;;;;;9.16;64.04;100392.44;5014793;28;20372;-79
2022/12/10 06:51:24;;;;;;;41.40;19.60;;;;;;;9.21;63.26;100394.59;5028374;28;20372;-80
2022/12/10 06:53:50;;;;;;;43.67;18.07;;;;;;;9.07;64.24;100398.75;5014746;28;20388;-80
2022/12/10 06:56:18;;;;;;;43.87;20.30;;;;;;;9.00;63.96;100393.28;5014303;28;20434;-80
2022/12/10 06:58:44;;;;;;;46.75;20.45;;;;;;;9.00;64.48;100406.50;5022727;28;20388;-81
2022/12/10 07:01:22;;;;;;;47.42;20.75;;;;;;;9.11;64.29;100405.34;5007422;28;20410;-80
2022/12/10 07:03:49;;;;;;;41.63;18.88;;;;;;;9.14;64.37;100395.25;5016970;28;20399;-80
2022/12/10 07:06:15;;;;;;;43.53;20.03;;;;;;;9.13;63.71;100392.78;5036251;28;20460;-82
2022/12/10 07:08:41;;;;;;;44.47;20.97;;;;;;;9.11;64.32;100395.59;4999414;28;20392;-79
2022/12/10 07:11:09;;;;;;;42.50;20.08;;;;;;;9.14;63.86;100392.59;5006847;28;20759;-80
2022/12/10 07:13:36;;;;;;;47.72;22.50;;;;;;;9.18;63.81;100407.16;5009332;28;20384;-80
2022/12/10 07:16:01;;;;;;;48.57;22.47;;;;;;;9.13;64.38;100404.19;5012763;28;20498;-80
2022/12/10 07:18:27;;;;;;;40.97;19.50;;;;;;;9.28;64.05;100401.69;5008988;28;20749;-79
2022/12/10 07:20:53;;;;;;;35.67;18.73;;;;;;;9.38;63.60;100396.19;4998274;28;20490;-80
2022/12/10 07:23:19;;;;;;;40.15;20.23;;;;;;;9.41;63.20;100387.91;5008627;28;20432;-79
2022/12/10 07:25:46;;;;;;;41.67;21.95;;;;;;;9.50;63.24;100392.19;5014023;28;20390;-81
2022/12/10 07:28:11;;;;;;;40.20;21.30;;;;;;;9.55;63.26;100387.19;5004392;28;20394;-79
2022/12/10 07:30:37;;;;;;;36.30;19.17;;;;;;;9.59;62.79;100376.28;5008816;28;20391;-81
2022/12/10 07:33:02;;;;;;;41.17;21.58;;;;;;;9.70;62.89;100373.25;5005027;28;20404;-80
2022/12/10 07:35:28;;;;;;;33.28;17.55;;;;;;;9.70;62.82;100370.59;5003279;28;20427;-81
2022/12/10 07:37:54;;;;;;;33.28;17.88;;;;;;;9.70;62.90;100363.47;5008123;28;20396;-81
2022/12/10 07:40:19;;;;;;;33.40;18.03;;;;;;;9.76;62.88;100346.91;5009159;28;20919;-80
2022/12/10 07:42:45;;;;;;;56.97;30.47;;;;;;;9.81;62.93;100345.56;5008799;28;20403;-80
2022/12/10 07:45:10;;;;;;;59.95;30.25;;;;;;;9.87;62.52;100351.00;5000980;28;20411;-77
2022/12/10 07:47:37;;;;;;;47.10;25.47;;;;;;;9.87;62.65;100334.31;5005324;28;20425;-77
2022/12/10 07:50:03;;;;;;;41.90;22.55;;;;;;;9.88;62.77;100331.44;5038033;28;20390;-78
2022/12/10 07:52:29;;;;;;;40.00;22.30;;;;;;;9.86;63.23;100349.34;5023982;28;20390;-77
2022/12/10 07:54:54;;;;;;;36.15;21.08;;;;;;;9.83;62.92;100340.91;5021616;28;20405;-77
2022/12/10 07:57:20;;;;;;;37.57;21.63;;;;;;;9.92;63.15;100353.09;5020759;28;20399;-77
2022/12/10 07:59:46;;;;;;;43.97;25.37;;;;;;;9.76;63.07;100352.22;5024673;28;20404;-77
2022/12/10 08:02:12;;;;;;;40.35;22.83;;;;;;;9.66;63.86;100362.19;5023437;28;20409;-77
2022/12/10 08:04:37;;;;;;;37.47;21.70;;;;;;;9.67;63.82;100355.06;5025890;28;20825;-77
2022/12/10 08:07:03;;;;;;;41.35;24.50;;;;;;;9.80;63.22;100354.53;5025582;28;20797;-78
2022/12/10 08:09:28;;;;;;;38.22;21.42;;;;;;;9.77;63.41;100361.78;5028979;28;20470;-78
2022/12/10 08:11:54;;;;;;;40.33;24.17;;;;;;;9.75;63.11;100353.19;5034236;28;21400;-78
2022/12/10 08:14:19;;;;;;;34.37;19.63;;;;;;;9.66;63.58;100358.72;5024067;28;20521;-78
2022/12/10 08:16:45;;;;;;;27.20;15.73;;;;;;;9.49;63.87;100372.03;5021226;28;20412;-77
2022/12/10 08:19:10;;;;;;;34.23;19.57;;;;;;;9.42;64.07;100379.00;5028049;28;20901;-77
2022/12/10 08:21:36;;;;;;;24.60;14.80;;;;;;;9.49;63.79;100365.88;5019251;28;20882;-78
2022/12/10 08:24:01;;;;;;;30.70;17.47;;;;;;;9.51;63.49;100354.16;5010563;28;20403;-78
2022/12/10 08:26:29;;;;;;;28.50;16.27;;;;;;;9.51;64.24;100356.78;5011312;28;20399;-77
2022/12/10 08:28:55;;;;;;;22.27;13.10;;;;;;;9.59;63.47;100348.00;5009782;28;20424;-79
2022/12/10 08:31:22;;;;;;;26.47;15.97;;;;;;;9.74;63.28;100342.78;5027371;28;20391;-80
2022/12/10 08:33:48;;;;;;;27.08;15.48;;;;;;;9.92;63.38;100339.88;5014931;28;20376;-79
2022/12/10 08:36:15;;;;;;;26.43;15.57;;;;;;;10.02;62.87;100331.72;5026296;28;20400;-77
2022/12/10 08:38:41;;;;;;;33.58;18.67;;;;;;;10.00;62.76;100326.59;5028056;28;20905;-79
2022/12/10 08:41:10;;;;;;;27.60;17.25;;;;;;;9.95;62.58;100316.50;5014943;28;20400;-79
2022/12/10 08:43:35;;;;;;;27.40;16.65;;;;;;;10.01;62.71;100304.41;5013566;28;20398;-79
2022/12/10 08:46:01;;;;;;;28.25;17.27;;;;;;;10.02;62.68;100292.81;5026536;28;20481;-78
2022/12/10 08:48:27;;;;;;;26.40;17.15;;;;;;;10.01;62.70;100298.28;5031344;28;20395;-79
2022/12/10 08:50:52;;;;;;;25.97;17.07;;;;;;;9.95;62.94;100300.63;5020468;28;20389;-78
2022/12/10 08:53:18;;;;;;;21.07;13.47;;;;;;;9.85;62.79;100310.63;5019740;28;20396;-77
2022/12/10 08:55:43;;;;;;;23.10;14.73;;;;;;;9.88;63.27;100320.03;5026156;28;20516;-77
2022/12/10 08:58:09;;;;;;;29.17;18.08;;;;;;;9.87;62.81;100318.41;5019882;28;20399;-77
2022/12/10 09:00:36;;;;;;;23.25;14.95;;;;;;;9.64;63.53;100311.25;5026360;28;20409;-77
2022/12/10 09:03:01;;;;;;;25.57;17.23;;;;;;;9.68;63.83;100312.53;5021101;28;20486;-77
2022/12/10 09:05:27;;;;;;;19.10;12.97;;;;;;;9.75;63.61;100313.50;5020327;28;20483;-77
2022/12/10 09:07:52;;;;;;;27.02;20.20;;;;;;;9.73;63.66;100309.38;5016759;28;20384;-78
2022/12/10 09:10:18;;;;;;;19.80;12.83;;;;;;;9.79;63.99;100305.22;5019866;28;20383;-81
2022/12/10 09:12:43;;;;;;;22.33;16.53;;;;;;;10.03;63.62;100296.28;5024786;28;20383;-80
2022/12/10 09:15:10;;;;;;;17.77;13.05;;;;;;;10.19;63.54;100287.38;5022643;28;20467;-79
2022/12/10 09:17:36;;;;;;;21.77;14.98;;;;;;;10.33;62.75;100307.84;5017156;28;20793;-79
2022/12/10 09:20:02;;;;;;;18.53;12.97;;;;;;;10.39;62.78;100319.53;5021000;28;20404;-77
2022/12/10 09:22:28;;;;;;;21.55;15.65;;;;;;;10.41;62.75;100325.50;5024379;28;20394;-77
2022/12/10 09:24:54;;;;;;;21.30;15.10;;;;;;;10.33;62.75;100319.28;5024087;28;20752;-77
2022/12/10 09:27:20;;;;;;;21.70;15.23;;;;;;;10.15;63.37;100324.00;5018626;28;20393;-77
2022/12/10 09:29:46;;;;;;;21.42;15.23;;;;;;;10.15;63.03;100316.06;5026033;28;20398;-77
2022/12/10 09:32:11;;;;;;;24.70;17.43;;;;;;;10.30;63.00;100316.13;5020965;28;20402;-78
2022/12/10 09:34:37;;;;;;;20.97;16.20;;;;;;;10.45;63.03;100317.00;5025912;28;20445;-77
2022/12/10 09:37:02;;;;;;;24.80;16.58;;;;;;;10.44;62.53;100302.13;5016437;28;20863;-78
2022/12/10 09:39:27;;;;;;;22.57;15.70;;;;;;;10.32;63.18;100290.31;5009267;28;20426;-77
2022/12/10 09:42:44;;;;;;;21.13;13.85;;;;;;;10.32;62.52;100277.06;5008158;28;20404;-77
2022/12/10 09:45:31;;;;;;;19.15;13.38;;;;;;;10.34;62.56;100261.81;4948460;28;20413;-78
2022/12/10 09:48:21;;;;;;;19.83;14.38;;;;;;;10.39;62.83;100261.25;4933082;29;20915;-78
2022/12/10 09:50:55;;;;;;;26.70;16.55;;;;;;;10.32;62.60;100243.44;5003622;28;20471;-78
2022/12/10 09:53:23;;;;;;;26.60;16.40;;;;;;;10.47;63.14;100235.50;5010484;28;20468;-77
2022/12/10 09:55:49;;;;;;;24.67;15.93;;;;;;;10.44;63.03;100232.38;5010183;28;20391;-77
2022/12/10 09:58:24;;;;;;;26.45;17.23;;;;;;;10.54;62.75;100226.84;5012010;28;20402;-77
2022/12/10 10:01:14;;;;;;;24.25;16.38;;;;;;;10.50;63.21;100234.34;5017477;28;20487;-77
2022/12/10 10:03:42;;;;;;;23.50;16.52;;;;;;;10.63;62.95;100246.94;5019239;28;20402;-77
2022/12/10 10:06:11;;;;;;;26.05;17.23;;;;;;;10.74;62.65;100261.59;5018664;28;20471;-76
2022/12/10 10:08:49;;;;;;;27.25;18.50;;;;;;;10.77;62.35;100255.91;5018153;28;20415;-76
2022/12/10 10:11:19;;;;;;;25.48;17.45;;;;;;;10.80;62.52;100229.84;5008756;28;20385;-76
2022/12/10 10:13:53;;;;;;;26.55;17.17;;;;;;;10.69;62.70;100223.16;5011134;28;20388;-77
2022/12/10 10:16:47;;;;;;;25.20;17.60;;;;;;;10.67;62.59;100217.22;5016676;28;20438;-77
2022/12/10 10:19:17;;;;;;;25.80;18.33;;;;;;;10.56;62.77;100220.34;5029237;28;20384;-78
2022/12/10 10:21:46;;;;;;;29.63;23.73;;;;;;;10.52;62.59;100221.72;5019469;28;20401;-77
2022/12/10 10:24:18;;;;;;;362.85;256.35;;;;;;;10.48;62.90;100207.19;5010258;28;20462;-76
2022/12/10 10:26:45;;;;;;;21.98;15.73;;;;;;;10.58;62.96;100205.06;5006308;28;20407;-76
2022/12/10 10:29:13;;;;;;;23.50;17.17;;;;;;;10.51;62.51;100198.84;5012584;28;20434;-76
2022/12/10 10:31:41;;;;;;;22.75;17.00;;;;;;;10.58;62.85;100180.41;5010336;28;20390;-77
2022/12/10 10:34:23;;;;;;;21.70;15.45;;;;;;;10.59;63.18;100172.28;5018622;28;20394;-76
2022/12/10 10:36:56;;;;;;;24.30;17.33;;;;;;;10.70;62.68;100174.47;5007600;28;20864;-76
2022/12/10 10:39:35;;;;;;;23.40;16.88;;;;;;;10.81;62.68;100177.66;5002522;28;20405;-76
2022/12/10 10:42:09;;;;;;;22.50;15.95;;;;;;;10.98;63.03;100179.06;5018724;28;20406;-76
2022/12/10 10:44:37;;;;;;;20.20;14.80;;;;;;;11.10;63.30;100174.13;5002190;28;20397;-76
2022/12/10 10:47:24;;;;;;;16.75;12.02;;;;;;;10.91;62.25;100170.22;5012016;28;20404;-77
2022/12/10 10:49:49;;;;;;;16.63;12.15;;;;;;;10.78;62.43;100159.47;5014786;28;20433;-78
2022/12/10 10:52:16;;;;;;;16.98;12.30;;;;;;;10.79;62.41;100167.22;5022497;28;20440;-76
2022/12/10 10:54:47;;;;;;;17.67;12.40;;;;;;;10.77;62.21;100160.47;5023656;28;20382;-76
2022/12/10 10:57:23;;;;;;;17.90;13.02;;;;;;;10.80;62.40;100149.50;5009424;28;20396;-76
2022/12/10 10:59:51;;;;;;;18.13;12.60;;;;;;;10.80;62.29;100162.75;5006203;28;20420;-76
2022/12/10 11:02:37;;;;;;;15.52;11.50;;;;;;;10.83;61.96;100163.19;5020046;28;20410;-76
2022/12/10 11:05:15;;;;;;;16.00;11.80;;;;;;;10.93;61.46;100154.13;5018730;28;20856;-77
2022/12/10 11:07:41;;;;;;;19.38;13.73;;;;;;;11.01;61.49;100133.63;5024550;28;20421;-76
2022/12/10 11:10:17;;;;;;;19.00;13.80;;;;;;;11.07;61.76;100121.44;5025430;28;20449;-78
2022/12/10 11:12:45;;;;;;;17.67;12.80;;;;;;;11.03;61.74;100114.88;5027022;28;20758;-77
2022/12/10 11:15:23;;;;;;;20.25;14.05;;;;;;;11.03;61.70;100104.28;5015826;28;20393;-78
2022/12/10 11:17:50;;;;;;;17.27;12.80;;;;;;;11.17;62.29;100107.88;5023300;28;20463;-78
2022/12/10 11:20:25;;;;;;;22.47;16.43;;;;;;;11.25;62.32;100102.44;5025232;28;20502;-78
2022/12/10 11:22:58;;;;;;;24.55;18.98;;;;;;;11.40;61.95;100094.44;5018025;28;20393;-77
2022/12/10 11:25:47;;;;;;;21.58;15.23;;;;;;;11.41;62.00;100096.06;5015821;28;20448;-76
2022/12/10 11:28:41;;;;;;;30.17;27.15;;;;;;;11.46;61.64;100101.63;5013776;28;20410;-77
2022/12/10 11:31:43;;;;;;;21.75;16.38;;;;;;;11.52;61.80;100095.53;5020487;28;20391;-76